createdAt,value
2017-08-05T00:01:46.014Z,101009.53
2017-08-05T00:04:14.341Z,101022.20
2017-08-05T00:06:43.230Z,101012.80
2017-08-05T00:09:11.636Z,101010.47
2017-08-05T00:11:39.959Z,101016.78
2017-08-05T00:14:08.712Z,101016.48
2017-08-05T00:16:37.055Z,101019.13
2017-08-05T00:19:06.178Z,101013.63
2017-08-05T00:21:34.974Z,101020.27
2017-08-05T00:24:03.320Z,101022.08
2017-08-05T00:26:31.649Z,101018.70
2017-08-05T00:29:00.516Z,101023.87
2017-08-05T00:31:28.845Z,101017.84
2017-08-05T00:33:57.182Z,101019.95
2017-08-05T00:36:26.022Z,101015.51
2017-08-05T00:38:54.358Z,101022.07
2017-08-05T00:41:22.711Z,101016.98
2017-08-05T00:43:51.447Z,101020.09
2017-08-05T00:46:19.794Z,101022.94
2017-08-05T00:48:48.117Z,101023.55
2017-08-05T00:51:16.935Z,101021.66
2017-08-05T00:53:45.278Z,101021.02
2017-08-05T00:56:13.621Z,101023.87
2017-08-05T00:58:42.582Z,101023.63
2017-08-05T01:01:10.937Z,101017.49
2017-08-05T01:03:40.039Z,101011.38
2017-08-05T01:06:09.662Z,101012.77
2017-08-05T01:08:38.007Z,101013.72
2017-08-05T01:11:06.340Z,101009.80
2017-08-05T01:13:35.311Z,101006.69
2017-08-05T01:16:03.657Z,101011.73
2017-08-05T01:18:32.014Z,101012.41
2017-08-05T01:21:00.658Z,101008.05
2017-08-05T01:23:29.012Z,101004.02
2017-08-05T01:25:57.367Z,100998.55
2017-08-05T01:28:26.028Z,101005.31
2017-08-05T01:30:54.368Z,101014.96
2017-08-05T01:33:22.743Z,101012.91
2017-08-05T01:35:51.514Z,101017.28
2017-08-05T01:38:19.861Z,101024.47
2017-08-05T01:40:48.205Z,101014.78
2017-08-05T01:43:16.945Z,101024.54
2017-08-05T01:45:45.281Z,101027.61
2017-08-05T01:48:13.627Z,101024.58
2017-08-05T01:50:42.272Z,101024.70
2017-08-05T01:53:10.620Z,101019.34
2017-08-05T01:55:38.971Z,101028.59
2017-08-05T01:58:07.653Z,101028.80
2017-08-05T02:00:35.997Z,101013.60
2017-08-05T02:03:04.341Z,101009.28
2017-08-05T02:05:32.993Z,101010.23
2017-08-05T02:08:01.357Z,101019.23
2017-08-05T02:10:29.685Z,101006.52
2017-08-05T02:12:58.319Z,101013.50
2017-08-05T02:15:26.642Z,101025.64
2017-08-05T02:17:55.255Z,101021.95
2017-08-05T02:20:24.459Z,101017.64
2017-08-05T02:22:52.809Z,101006.56
2017-08-05T02:25:21.147Z,101015.52
2017-08-05T02:27:49.976Z,101016.87
2017-08-05T02:30:18.323Z,101017.88
2017-08-05T02:32:46.668Z,101023.70
2017-08-05T02:35:15.346Z,101023.52
2017-08-05T02:37:43.686Z,101027.41
2017-08-05T02:40:12.030Z,101027.06
2017-08-05T02:42:40.822Z,101026.17
2017-08-05T02:45:09.230Z,101031.02
2017-08-05T02:47:38.325Z,101018.69
2017-08-05T02:50:07.935Z,101021.32
2017-08-05T02:52:36.276Z,101019.27
2017-08-05T02:55:04.624Z,101028.35
2017-08-05T02:57:33.245Z,101030.65
2017-08-05T03:00:01.607Z,101046.59
2017-08-05T03:02:29.942Z,101040.78
2017-08-05T03:04:58.791Z,101039.59
2017-08-05T03:07:27.151Z,101028.41
2017-08-05T03:09:55.491Z,101028.39
2017-08-05T03:12:24.273Z,101017.38
2017-08-05T03:14:52.609Z,101019.65
2017-08-05T03:17:20.957Z,101020.34
2017-08-05T03:19:49.720Z,101023.72
2017-08-05T03:22:18.069Z,101033.75
2017-08-05T03:24:46.422Z,101031.01
2017-08-05T03:27:15.117Z,101040.81
2017-08-05T03:29:43.496Z,101040.17
2017-08-05T03:32:11.830Z,101036.11
2017-08-05T03:34:40.519Z,101038.81
2017-08-05T03:37:08.853Z,101029.27
2017-08-05T03:39:37.181Z,101031.38
2017-08-05T03:42:05.811Z,101033.37
2017-08-05T03:44:34.135Z,101041.16
2017-08-05T03:47:02.479Z,101033.28
2017-08-05T03:49:32.136Z,101028.50
2017-08-05T03:52:00.486Z,101032.69
2017-08-05T03:54:30.370Z,101046.55
2017-08-05T03:56:59.203Z,101060.51
2017-08-05T03:59:27.558Z,101058.52
2017-08-05T04:01:55.900Z,101045.12
2017-08-05T04:04:24.552Z,101038.17
2017-08-05T04:06:52.901Z,101048.89
2017-08-05T04:09:21.241Z,101054.75
2017-08-05T04:11:50.295Z,101045.30
2017-08-05T04:14:18.626Z,101040.80
2017-08-05T04:16:46.949Z,101047.36
2017-08-05T04:19:15.586Z,101058.73
2017-08-05T04:21:43.931Z,101061.21
2017-08-05T04:24:12.263Z,101046.87
2017-08-05T04:26:41.182Z,101035.03
2017-08-05T04:29:09.537Z,101023.47
2017-08-05T04:31:38.672Z,101041.06
2017-08-05T04:34:07.612Z,101041.77
2017-08-05T04:36:35.951Z,101036.56
2017-08-05T04:39:04.302Z,101032.88
2017-08-05T04:41:32.923Z,101028.14
2017-08-05T04:44:01.260Z,101032.09
2017-08-05T04:46:30.367Z,101029.12
2017-08-05T04:48:59.802Z,101037.68
2017-08-05T04:51:28.136Z,101046.78
2017-08-05T04:53:57.246Z,101053.70
2017-08-05T04:56:27.294Z,101052.89
2017-08-05T04:58:55.671Z,101055.01
2017-08-05T05:01:24.012Z,101067.03
2017-08-05T05:03:52.906Z,101073.89
2017-08-05T05:06:21.241Z,101075.07
2017-08-05T05:08:49.592Z,101064.54
2017-08-05T05:11:18.239Z,101066.09
2017-08-05T05:13:47.383Z,101056.49
2017-08-05T05:16:15.718Z,101056.08
2017-08-05T05:18:44.606Z,101062.20
2017-08-05T05:21:12.950Z,101072.10
2017-08-05T05:23:41.292Z,101069.32
2017-08-05T05:26:09.948Z,101070.95
2017-08-05T05:28:38.328Z,101081.20
2017-08-05T05:31:06.677Z,101087.69
2017-08-05T05:33:35.514Z,101066.45
2017-08-05T05:36:03.870Z,101066.24
2017-08-05T05:38:32.226Z,101077.53
2017-08-05T05:41:01.690Z,101080.27
2017-08-05T05:43:30.033Z,101094.08
2017-08-05T05:45:58.372Z,101085.42
2017-08-05T05:48:27.232Z,101068.56
2017-08-05T05:50:55.586Z,101063.71
2017-08-05T05:53:24.685Z,101068.12
2017-08-05T05:55:54.318Z,101066.45
2017-08-05T05:58:22.682Z,101061.66
2017-08-05T06:00:51.050Z,101057.66
2017-08-05T06:03:19.954Z,101077.91
2017-08-05T06:05:48.295Z,101084.05
2017-08-05T06:08:16.644Z,101074.00
2017-08-05T06:10:45.381Z,101075.97
2017-08-05T06:13:13.713Z,101069.70
2017-08-05T06:15:42.045Z,101079.41
2017-08-05T06:18:11.453Z,101074.33
2017-08-05T06:20:39.794Z,101084.44
2017-08-05T06:23:08.145Z,101085.69
2017-08-05T06:25:37.108Z,101073.50
2017-08-05T06:28:05.453Z,101072.03
2017-08-05T06:30:33.814Z,101075.36
2017-08-05T06:33:02.554Z,101066.68
2017-08-05T06:35:30.907Z,101069.92
2017-08-05T06:37:59.256Z,101071.52
2017-08-05T06:40:28.007Z,101077.67
2017-08-05T06:42:56.344Z,101076.50
2017-08-05T06:45:24.689Z,101067.98
2017-08-05T06:47:53.460Z,101051.16
2017-08-05T06:50:21.956Z,101061.89
2017-08-05T06:52:50.279Z,101061.03
2017-08-05T06:55:19.115Z,101058.54
2017-08-05T06:57:47.511Z,101050.44
2017-08-05T07:00:15.872Z,101050.09
2017-08-05T07:02:44.750Z,101054.09
2017-08-05T07:05:13.109Z,101051.39
2017-08-05T07:07:41.476Z,101041.55
2017-08-05T07:10:10.270Z,101051.30
2017-08-05T07:12:38.605Z,101059.70
2017-08-05T07:15:06.972Z,101063.84
2017-08-05T07:17:35.619Z,101060.16
2017-08-05T07:20:04.032Z,101068.17
2017-08-05T07:22:32.429Z,101048.30
2017-08-05T07:25:01.184Z,101061.83
2017-08-05T07:27:29.717Z,101066.72
2017-08-05T07:29:58.146Z,101046.09
2017-08-05T07:32:27.612Z,101054.44
2017-08-05T07:34:55.980Z,101049.93
2017-08-05T07:37:24.339Z,101054.20
2017-08-05T07:39:53.002Z,101056.77
2017-08-05T07:42:21.511Z,101067.98
2017-08-05T07:44:49.903Z,101065.48
2017-08-05T07:47:18.750Z,101057.96
2017-08-05T07:49:47.207Z,101062.59
2017-08-05T07:52:15.569Z,101063.51
2017-08-05T07:54:44.567Z,101059.70
2017-08-05T07:57:13.312Z,101064.31
2017-08-05T07:59:42.118Z,101056.63
2017-08-05T08:02:11.090Z,101071.06
2017-08-05T08:04:39.491Z,101062.42
2017-08-05T08:07:08.068Z,101055.59
2017-08-05T08:09:37.067Z,101060.13
2017-08-05T08:12:05.651Z,101052.44
2017-08-05T08:14:34.151Z,101049.58
2017-08-05T08:17:03.305Z,101056.59
2017-08-05T08:19:31.803Z,101061.52
2017-08-05T08:22:00.345Z,101064.16
2017-08-05T08:24:30.076Z,101066.63
2017-08-05T08:26:58.588Z,101056.16
2017-08-05T08:29:27.043Z,101052.30
2017-08-05T08:31:55.844Z,101061.95
2017-08-05T08:34:24.249Z,101066.85
2017-08-05T08:36:52.603Z,101055.56
2017-08-05T08:39:21.375Z,101063.02
2017-08-05T08:41:49.771Z,101060.31
2017-08-05T08:44:18.205Z,101062.83
2017-08-05T08:46:47.006Z,101060.61
2017-08-05T08:49:15.391Z,101056.85
2017-08-05T08:51:43.776Z,101054.55
2017-08-05T08:54:12.507Z,101057.42
2017-08-05T08:56:40.842Z,101054.30
2017-08-05T08:59:09.439Z,101067.94
2017-08-05T09:01:38.418Z,101072.62
2017-08-05T09:04:06.770Z,101072.84
2017-08-05T09:06:35.118Z,101071.27
2017-08-05T09:09:03.761Z,101072.70
2017-08-05T09:11:32.890Z,101065.71
2017-08-05T09:14:01.254Z,101060.91
2017-08-05T09:16:29.922Z,101054.47
2017-08-05T09:18:58.260Z,101053.52
2017-08-05T09:21:26.620Z,101057.20
2017-08-05T09:23:55.332Z,101060.05
2017-08-05T09:26:23.714Z,101070.98
2017-08-05T09:28:52.089Z,101066.53
2017-08-05T09:31:20.754Z,101060.82
2017-08-05T09:33:49.098Z,101075.33
2017-08-05T09:36:17.468Z,101074.25
2017-08-05T09:38:46.100Z,101083.73
2017-08-05T09:41:14.470Z,101088.72
2017-08-05T09:43:42.826Z,101092.64
2017-08-05T09:46:11.510Z,101080.38
2017-08-05T09:48:39.855Z,101080.07
2017-08-05T09:51:08.202Z,101077.14
2017-08-05T09:53:36.851Z,101087.71
2017-08-05T09:56:05.217Z,101084.77
2017-08-05T09:58:33.630Z,101090.41
2017-08-05T10:01:02.881Z,101074.92
2017-08-05T10:03:32.075Z,101078.27
2017-08-05T10:06:00.441Z,101087.05
2017-08-05T10:08:29.470Z,101101.36
2017-08-05T10:10:57.812Z,101099.31
2017-08-05T10:13:26.194Z,101089.70
2017-08-05T10:15:54.859Z,101074.70
2017-08-05T10:18:23.214Z,101069.80
2017-08-05T10:20:51.591Z,101079.36
2017-08-05T10:23:20.296Z,101088.86
2017-08-05T10:25:48.666Z,101087.05
2017-08-05T10:28:17.025Z,101073.00
2017-08-05T10:30:45.802Z,101072.62
2017-08-05T10:33:14.171Z,101063.67
2017-08-05T10:35:43.282Z,101063.08
2017-08-05T10:38:11.900Z,101095.44
2017-08-05T10:40:40.252Z,101099.59
2017-08-05T10:43:08.604Z,101100.78
2017-08-05T10:45:37.304Z,101097.53
2017-08-05T10:48:05.674Z,101097.04
2017-08-05T10:50:34.031Z,101090.17
2017-08-05T10:53:02.828Z,101077.42
2017-08-05T10:55:31.176Z,101077.27
2017-08-05T10:57:59.548Z,101068.21
2017-08-05T11:00:28.209Z,101075.13
2017-08-05T11:02:56.592Z,101067.87
2017-08-05T11:05:24.939Z,101081.64
2017-08-05T11:07:53.689Z,101082.08
2017-08-05T11:10:22.067Z,101076.47
2017-08-05T11:12:50.416Z,101077.67
2017-08-05T11:15:19.483Z,101080.83
2017-08-05T11:17:47.823Z,101076.17
2017-08-05T11:20:16.179Z,101076.23
2017-08-05T11:22:44.958Z,101076.12
2017-08-05T11:25:13.362Z,101068.42
2017-08-05T11:27:41.721Z,101066.49
2017-08-05T11:30:10.372Z,101066.92
2017-08-05T11:32:38.754Z,101062.59
2017-08-05T11:35:07.104Z,101069.48
2017-08-05T11:37:36.071Z,101073.20
2017-08-05T11:40:04.463Z,101077.97
2017-08-05T11:42:32.826Z,101081.10
2017-08-05T11:45:01.488Z,101076.34
2017-08-05T11:47:29.896Z,101070.47
2017-08-05T11:49:58.258Z,101077.08
2017-08-05T11:52:26.992Z,101081.95
2017-08-05T11:54:55.365Z,101083.82
2017-08-05T11:57:23.725Z,101086.39
2017-08-05T11:59:52.612Z,101076.84
2017-08-05T12:02:20.959Z,101071.95
2017-08-05T12:04:49.317Z,101071.63
2017-08-05T12:07:17.993Z,101066.70
2017-08-05T12:09:46.335Z,101066.81
2017-08-05T12:12:14.693Z,101065.31
2017-08-05T12:14:43.470Z,101071.59
2017-08-05T12:17:11.827Z,101069.41
2017-08-05T12:19:40.175Z,101072.92
2017-08-05T12:22:09.006Z,101072.44
2017-08-05T12:24:38.118Z,101081.15
2017-08-05T12:27:07.349Z,101082.42
2017-08-05T12:29:36.828Z,101085.80
2017-08-05T12:32:05.171Z,101094.34
2017-08-05T12:34:33.616Z,101107.48
2017-08-05T12:37:02.489Z,101099.14
2017-08-05T12:39:30.888Z,101100.80
2017-08-05T12:41:59.241Z,101090.76
2017-08-05T12:44:28.029Z,101094.22
2017-08-05T12:46:56.402Z,101103.38
2017-08-05T12:49:24.758Z,101101.49
2017-08-05T12:51:54.418Z,101094.78
2017-08-05T12:54:22.767Z,101075.83
2017-08-05T12:56:51.106Z,101069.32
2017-08-05T12:59:19.866Z,101071.62
2017-08-05T13:01:48.209Z,101081.66
2017-08-05T13:04:17.343Z,101080.39
2017-08-05T13:06:46.306Z,101084.28
2017-08-05T13:09:14.674Z,101090.72
2017-08-05T13:11:43.773Z,101079.85
2017-08-05T13:14:12.553Z,101079.06
2017-08-05T13:16:40.894Z,101064.64
2017-08-05T13:19:09.221Z,101074.51
2017-08-05T13:21:38.632Z,101071.13
2017-08-05T13:24:06.983Z,101074.25
2017-08-05T13:26:35.340Z,101062.47
2017-08-05T13:29:04.085Z,101060.79
2017-08-05T13:31:32.431Z,101064.99
2017-08-05T13:34:01.530Z,101083.51
2017-08-05T13:36:31.182Z,101090.63
2017-08-05T13:38:59.540Z,101082.62
2017-08-05T13:41:27.889Z,101092.84
2017-08-05T13:43:56.803Z,101091.59
2017-08-05T13:46:25.148Z,101091.13
2017-08-05T13:48:53.508Z,101095.00
2017-08-05T13:51:23.083Z,101091.84
2017-08-05T13:53:51.448Z,101095.88
2017-08-05T13:56:19.795Z,101093.88
2017-08-05T13:58:48.415Z,101099.84
2017-08-05T14:01:16.745Z,101090.62
2017-08-05T14:03:45.103Z,101090.23
2017-08-05T14:06:14.170Z,101088.66
2017-08-05T14:08:42.521Z,101081.16
2017-08-05T14:11:10.882Z,101077.78
2017-08-05T14:13:39.629Z,101070.84
2017-08-05T14:16:07.981Z,101076.40
2017-08-05T14:18:37.096Z,101071.00
2017-08-05T14:21:05.779Z,101078.40
2017-08-05T14:23:34.138Z,101080.82
2017-08-05T14:26:02.483Z,101067.67
2017-08-05T14:28:31.202Z,101069.29
2017-08-05T14:31:00.327Z,101072.91
2017-08-05T14:33:28.712Z,101073.47
2017-08-05T14:35:57.797Z,101077.84
2017-08-05T14:38:26.159Z,101067.27
2017-08-05T14:40:55.270Z,101072.86
2017-08-05T14:43:23.902Z,101069.01
2017-08-05T14:45:52.275Z,101070.48
2017-08-05T14:48:20.620Z,101066.80
2017-08-05T14:50:49.399Z,101066.45
2017-08-05T14:53:17.748Z,101050.48
2017-08-05T14:55:46.132Z,101070.21
2017-08-05T14:58:15.129Z,101059.08
2017-08-05T15:00:43.502Z,101064.35
2017-08-05T15:03:12.636Z,101060.55
2017-08-05T15:05:41.426Z,101050.92
2017-08-05T15:08:09.766Z,101053.38
2017-08-05T15:10:38.903Z,101056.50
2017-08-05T15:13:07.694Z,101055.27
2017-08-05T15:15:36.026Z,101053.41
2017-08-05T15:18:04.391Z,101055.25
2017-08-05T15:20:33.168Z,101053.89
2017-08-05T15:23:01.541Z,101049.32
2017-08-05T15:25:29.880Z,101056.61
2017-08-05T15:27:58.606Z,101061.03
2017-08-05T15:30:26.952Z,101059.38
2017-08-05T15:32:55.294Z,101061.23
2017-08-05T15:35:24.238Z,101065.44
2017-08-05T15:37:52.571Z,101071.03
2017-08-05T15:40:20.946Z,101066.83
2017-08-05T15:42:49.781Z,101065.89
2017-08-05T15:45:18.157Z,101071.50
2017-08-05T15:47:46.496Z,101079.09
2017-08-05T15:50:15.335Z,101086.14
2017-08-05T15:52:43.713Z,101092.55
2017-08-05T15:55:12.073Z,101113.48
2017-08-05T15:57:40.728Z,101120.23
2017-08-05T16:00:09.114Z,101130.68
2017-08-05T16:02:37.458Z,101126.34
2017-08-05T16:05:06.558Z,101124.53
2017-08-05T16:07:34.906Z,101127.20
2017-08-05T16:10:03.264Z,101127.08
2017-08-05T16:12:31.915Z,101133.13
2017-08-05T16:15:00.288Z,101127.23
2017-08-05T16:17:28.685Z,101127.23
2017-08-05T16:19:57.508Z,101121.98
2017-08-05T16:22:25.854Z,101109.02
2017-08-05T16:24:54.216Z,101109.42
2017-08-05T16:27:23.156Z,101116.31
2017-08-05T16:29:51.556Z,101104.79
2017-08-05T16:32:19.948Z,101109.94
2017-08-05T16:34:48.628Z,101114.39
2017-08-05T16:37:17.007Z,101105.05
2017-08-05T16:39:45.384Z,101109.23
2017-08-05T16:42:14.049Z,101114.93
2017-08-05T16:44:42.432Z,101111.28
2017-08-05T16:47:10.801Z,101112.66
2017-08-05T16:49:39.688Z,101113.05
2017-08-05T16:52:08.058Z,101119.06
2017-08-05T16:54:37.200Z,101119.77
2017-08-05T16:57:06.116Z,101126.48
2017-08-05T16:59:34.473Z,101131.60
2017-08-05T17:02:02.821Z,101130.88
2017-08-05T17:04:32.020Z,101128.26
2017-08-05T17:07:00.380Z,101136.39
2017-08-05T17:09:28.742Z,101134.29
2017-08-05T17:11:57.531Z,101139.66
2017-08-05T17:14:25.903Z,101144.44
2017-08-05T17:16:54.239Z,101146.00
2017-08-05T17:19:22.881Z,101145.25
2017-08-05T17:21:51.280Z,101143.05
2017-08-05T17:24:19.666Z,101154.13
2017-08-05T17:26:48.567Z,101150.23
2017-08-05T17:29:16.918Z,101152.72
2017-08-05T17:31:45.285Z,101157.58
2017-08-05T17:34:14.342Z,101158.11
2017-08-05T17:36:42.730Z,101163.59
2017-08-05T17:39:11.088Z,101167.11
2017-08-05T17:41:39.860Z,101160.07
2017-08-05T17:44:08.229Z,101165.39
2017-08-05T17:46:37.351Z,101174.20
2017-08-05T17:49:06.356Z,101173.74
2017-08-05T17:51:34.742Z,101167.84
2017-08-05T17:54:04.015Z,101165.70
2017-08-05T17:56:33.209Z,101167.37
2017-08-05T17:59:01.618Z,101169.84
2017-08-05T18:01:30.008Z,101173.35
2017-08-05T18:03:58.733Z,101169.67
2017-08-05T18:06:28.058Z,101176.20
2017-08-05T18:08:56.434Z,101180.24
2017-08-05T18:11:25.252Z,101177.04
2017-08-05T18:13:53.616Z,101185.55
2017-08-05T18:16:21.972Z,101182.05
2017-08-05T18:18:50.641Z,101186.03
2017-08-05T18:21:19.098Z,101199.21
2017-08-05T18:23:47.435Z,101200.21
2017-08-05T18:26:16.077Z,101200.58
2017-08-05T18:28:44.440Z,101206.30
2017-08-05T18:31:12.784Z,101204.83
2017-08-05T18:33:41.681Z,101201.59
2017-08-05T18:36:10.034Z,101203.16
2017-08-05T18:38:39.167Z,101208.80
2017-08-05T18:41:08.143Z,101211.19
2017-08-05T18:43:36.521Z,101220.53
2017-08-05T18:46:04.913Z,101214.42
2017-08-05T18:48:33.864Z,101221.40
2017-08-05T18:51:03.203Z,101233.23
2017-08-05T18:53:32.414Z,101232.89
2017-08-05T18:56:01.901Z,101236.81
2017-08-05T18:58:30.271Z,101233.72
2017-08-05T19:00:58.622Z,101231.61
2017-08-05T19:03:27.445Z,101242.67
2017-08-05T19:05:55.807Z,101243.73
2017-08-05T19:08:24.167Z,101239.20
2017-08-05T19:10:53.615Z,101242.49
2017-08-05T19:13:21.954Z,101238.67
2017-08-05T19:15:50.356Z,101248.14
2017-08-05T19:18:19.053Z,101249.09
2017-08-05T19:20:47.472Z,101253.56
2017-08-05T19:23:15.868Z,101261.89
2017-08-05T19:25:44.905Z,101258.67
2017-08-05T19:28:13.267Z,101258.32
2017-08-05T19:30:42.388Z,101266.28
2017-08-05T19:33:11.127Z,101262.92
2017-08-05T19:35:39.502Z,101264.42
2017-08-05T19:38:07.855Z,101271.20
2017-08-05T19:40:36.631Z,101282.94
2017-08-05T19:43:05.000Z,101280.09
2017-08-05T19:45:33.377Z,101290.36
2017-08-05T19:48:02.748Z,101281.98
2017-08-05T19:50:31.184Z,101280.89
2017-08-05T19:52:59.559Z,101290.42
2017-08-05T19:55:28.235Z,101294.22
2017-08-05T19:57:56.595Z,101307.23
2017-08-05T20:00:24.946Z,101296.75
2017-08-05T20:02:53.628Z,101306.76
2017-08-05T20:05:21.989Z,101297.55
2017-08-05T20:07:50.343Z,101298.94
2017-08-05T20:10:19.436Z,101296.39
2017-08-05T20:12:47.789Z,101297.86
2017-08-05T20:15:16.144Z,101299.56
2017-08-05T20:17:45.067Z,101300.42
2017-08-05T20:20:13.426Z,101309.73
2017-08-05T20:22:41.788Z,101314.59
2017-08-05T20:25:10.633Z,101317.88
2017-08-05T20:27:38.994Z,101320.84
2017-08-05T20:30:07.376Z,101322.18
2017-08-05T20:32:36.247Z,101321.12
2017-08-05T20:35:05.356Z,101325.88
2017-08-05T20:37:33.711Z,101327.47
2017-08-05T20:40:02.371Z,101329.67
2017-08-05T20:42:30.739Z,101335.27
2017-08-05T20:44:59.099Z,101335.06
2017-08-05T20:47:27.890Z,101337.19
2017-08-05T20:49:56.249Z,101339.73
2017-08-05T20:52:24.597Z,101338.43
2017-08-05T20:54:53.318Z,101333.58
2017-08-05T20:57:21.683Z,101338.98
2017-08-05T20:59:50.817Z,101328.18
2017-08-05T21:02:19.467Z,101336.77
2017-08-05T21:04:48.592Z,101344.16
2017-08-05T21:07:16.951Z,101347.55
2017-08-05T21:09:45.839Z,101347.12
2017-08-05T21:12:14.224Z,101346.92
2017-08-05T21:14:42.585Z,101349.95
2017-08-05T21:17:11.309Z,101347.22
2017-08-05T21:19:39.688Z,101345.00
2017-08-05T21:22:08.037Z,101348.17
2017-08-05T21:24:36.823Z,101351.00
2017-08-05T21:27:05.968Z,101362.31
2017-08-05T21:29:34.343Z,101369.06
2017-08-05T21:32:03.092Z,101368.55
2017-08-05T21:34:32.232Z,101364.52
2017-08-05T21:37:00.587Z,101375.29
2017-08-05T21:39:29.291Z,101374.97
2017-08-05T21:41:57.648Z,101378.34
2017-08-05T21:44:26.015Z,101381.30
2017-08-05T21:46:54.919Z,101376.48
2017-08-05T21:49:23.299Z,101376.97
2017-08-05T21:51:51.645Z,101375.78
2017-08-05T21:54:20.296Z,101377.58
2017-08-05T21:56:48.670Z,101382.58
2017-08-05T21:59:17.071Z,101385.62
2017-08-05T22:01:45.807Z,101391.05
2017-08-05T22:04:14.278Z,101382.55
2017-08-05T22:06:42.664Z,101391.94
2017-08-05T22:09:11.451Z,101390.28
2017-08-05T22:11:39.810Z,101384.77
2017-08-05T22:14:08.191Z,101388.97
2017-08-05T22:16:37.138Z,101393.66
2017-08-05T22:19:05.503Z,101394.86
2017-08-05T22:21:33.862Z,101397.53
2017-08-05T22:24:02.692Z,101394.09
2017-08-05T22:26:31.069Z,101399.16
2017-08-05T22:28:59.443Z,101397.84
2017-08-05T22:31:28.336Z,101399.34
2017-08-05T22:33:56.749Z,101400.44
2017-08-05T22:36:25.119Z,101399.44
2017-08-05T22:38:53.768Z,101409.66
2017-08-05T22:41:22.123Z,101409.76
2017-08-05T22:43:50.493Z,101409.28
2017-08-05T22:46:20.150Z,101412.67
2017-08-05T22:48:48.530Z,101412.67
2017-08-05T22:51:16.958Z,101420.40
2017-08-05T22:53:46.346Z,101416.77
2017-08-05T22:56:14.685Z,101411.88
2017-08-05T22:58:43.061Z,101420.16
2017-08-05T23:01:11.820Z,101423.30
2017-08-05T23:03:40.203Z,101426.74
2017-08-05T23:06:08.565Z,101433.86
2017-08-05T23:08:37.422Z,101438.92
2017-08-05T23:11:05.786Z,101438.03
2017-08-05T23:13:34.164Z,101436.59
2017-08-05T23:16:02.801Z,101435.52
2017-08-05T23:18:31.949Z,101438.16
2017-08-05T23:21:00.319Z,101433.40
2017-08-05T23:23:29.026Z,101429.42
2017-08-05T23:25:57.373Z,101426.87
2017-08-05T23:28:25.745Z,101426.59
2017-08-05T23:30:54.898Z,101427.56
2017-08-05T23:33:23.262Z,101428.74
2017-08-05T23:35:51.616Z,101433.34
2017-08-05T23:38:20.291Z,101438.67
2017-08-05T23:40:48.666Z,101432.42
2017-08-05T23:43:17.017Z,101434.76
2017-08-05T23:45:45.950Z,101434.95
2017-08-05T23:48:14.324Z,101443.52
2017-08-05T23:50:42.685Z,101445.42
2017-08-05T23:53:11.586Z,101451.17
2017-08-05T23:55:39.948Z,101459.25
2017-08-05T23:58:08.318Z,101463.34
